createdAt,value
2023-03-29T05:03:07.058Z,21.79
2023-03-29T05:04:08.521Z,22.01
2023-03-29T05:05:07.188Z,22.07
2023-03-29T05:06:07.529Z,22.11
2023-03-29T05:07:07.248Z,22.13
2023-03-29T05:08:08.328Z,22.15
2023-03-29T05:09:08.320Z,22.17
2023-03-29T05:10:08.356Z,22.17
2023-03-29T05:11:08.358Z,22.17
2023-03-29T05:12:08.381Z,22.18
2023-03-29T05:13:08.471Z,22.19
2023-03-29T05:14:08.490Z,22.18
2023-03-29T05:17:07.672Z,22.22
2023-03-29T05:18:07.777Z,22.22
2023-03-29T05:19:07.803Z,22.22
2023-03-29T05:20:08.844Z,22.23
2023-03-29T05:21:08.895Z,22.24
2023-03-29T05:22:08.927Z,22.25
2023-03-29T05:23:08.960Z,22.25
2023-03-29T05:24:09.011Z,22.27
2023-03-29T05:27:08.183Z,22.27
2023-03-29T05:28:08.191Z,22.27
2023-03-29T05:29:09.211Z,22.27
2023-03-29T05:30:09.282Z,22.27
2023-03-29T05:31:09.368Z,22.26
2023-03-29T05:32:09.448Z,22.27
2023-03-29T05:33:09.407Z,22.26
2023-03-29T05:34:09.435Z,22.27
2023-03-29T05:35:09.483Z,22.27
2023-03-29T05:36:09.553Z,22.27
2023-03-29T05:39:08.623Z,22.26
2023-03-29T05:40:09.680Z,22.27
2023-03-29T05:41:09.706Z,22.27
2023-03-29T05:42:09.754Z,22.28
2023-03-29T05:46:08.975Z,22.29
2023-03-29T05:47:09.945Z,22.31
2023-03-29T05:48:08.997Z,22.30
2023-03-29T05:49:10.038Z,22.31
2023-03-29T05:50:10.061Z,22.32
2023-03-29T05:51:10.129Z,22.31
2023-03-29T05:53:09.182Z,22.30
2023-03-29T05:54:10.229Z,22.30
2023-03-29T05:55:10.269Z,22.31
2023-03-29T05:56:10.292Z,22.31
2023-03-29T05:57:10.620Z,22.30
2023-03-29T05:58:10.361Z,22.30
2023-03-29T05:59:10.389Z,22.30
2023-03-29T06:00:10.416Z,22.30
2023-03-29T06:02:09.585Z,22.31
2023-03-29T06:03:19.962Z,22.30
2023-03-29T06:04:10.607Z,22.29
2023-03-29T06:08:09.477Z,22.29
2023-03-29T06:09:09.520Z,22.30
2023-03-29T06:10:10.471Z,22.30
2023-03-29T06:11:10.572Z,22.38
2023-03-29T06:12:10.473Z,22.41
2023-03-29T06:16:09.466Z,22.38
2023-03-29T06:17:10.475Z,22.38
2023-03-29T06:18:10.568Z,22.37
2023-03-29T06:21:09.516Z,22.37
2023-03-29T06:22:09.439Z,22.36
2023-03-29T06:23:10.503Z,22.35
2023-03-29T06:24:10.469Z,22.36
2023-03-29T06:25:10.493Z,22.36
2023-03-29T06:26:10.543Z,22.35
2023-03-29T06:27:10.561Z,22.35
2023-03-29T06:28:10.561Z,22.35
2023-03-29T06:29:10.573Z,22.35
2023-03-29T06:30:10.599Z,22.35
2023-03-29T06:32:09.603Z,22.35
2023-03-29T06:33:09.709Z,22.36
2023-03-29T06:34:10.629Z,22.36
2023-03-29T06:38:09.653Z,22.38
2023-03-29T06:39:10.687Z,22.39
2023-03-29T06:40:10.682Z,22.38
2023-03-29T06:41:10.688Z,22.38
2023-03-29T06:43:09.678Z,22.40
2023-03-29T06:44:10.709Z,22.41
2023-03-29T06:46:09.735Z,22.40
2023-03-29T06:47:10.696Z,22.41
2023-03-29T06:48:10.782Z,22.41
2023-03-29T06:50:09.689Z,22.41
2023-03-29T06:51:10.678Z,22.41
2023-03-29T06:52:10.064Z,22.41
2023-03-29T06:53:10.671Z,22.48
2023-03-29T06:54:09.675Z,22.50
2023-03-29T06:55:10.697Z,22.51
2023-03-29T07:01:09.679Z,22.49
2023-03-29T07:02:10.773Z,22.47
2023-03-29T07:05:09.682Z,22.46
2023-03-29T07:06:09.687Z,22.46
2023-03-29T07:07:10.676Z,22.46
2023-03-29T07:08:10.684Z,22.47
2023-03-29T07:12:09.677Z,22.47
2023-03-29T07:13:10.666Z,22.47
2023-03-29T07:14:10.673Z,22.48
2023-03-29T07:15:10.659Z,22.47
2023-03-29T07:16:10.739Z,22.48
2023-03-29T07:19:09.702Z,22.48
2023-03-29T07:20:09.668Z,22.49
2023-03-29T07:21:10.734Z,22.50
2023-03-29T07:22:10.637Z,22.50
2023-03-29T07:25:09.689Z,22.52
2023-03-29T07:26:10.640Z,22.52
2023-03-29T07:27:10.685Z,22.52
2023-03-29T07:28:10.713Z,22.53
2023-03-29T07:29:10.658Z,22.53
2023-03-29T07:30:11.152Z,22.54
2023-03-29T07:33:09.776Z,22.56
2023-03-29T07:34:10.684Z,22.56
2023-03-29T07:35:10.720Z,22.56
2023-03-29T07:36:10.779Z,22.57
2023-03-29T07:37:09.697Z,22.57
2023-03-29T07:38:10.701Z,22.58
2023-03-29T07:39:10.721Z,22.57
2023-03-29T07:40:10.740Z,22.58
2023-03-29T07:41:10.780Z,22.58
2023-03-29T07:42:10.809Z,22.57
2023-03-29T07:43:10.823Z,22.70
2023-03-29T07:44:09.801Z,22.70
2023-03-29T07:45:10.794Z,22.71
2023-03-29T07:47:10.075Z,22.79
2023-03-29T07:49:09.783Z,22.82
2023-03-29T07:50:10.789Z,22.82
2023-03-29T07:51:10.845Z,22.92
2023-03-29T07:52:11.084Z,22.97
2023-03-29T07:53:10.860Z,22.97
2023-03-29T07:56:09.835Z,22.96
2023-03-29T07:57:10.921Z,22.97
2023-03-29T07:58:10.855Z,23.06
2023-03-29T07:59:10.941Z,23.08
2023-03-29T08:00:11.002Z,23.11
2023-03-29T08:01:13.491Z,23.10
2023-03-29T08:02:10.886Z,23.09
2023-03-29T08:03:09.926Z,23.10
2023-03-29T08:04:10.239Z,23.15
2023-03-29T08:05:10.012Z,23.16
2023-03-29T08:06:10.994Z,23.19
2023-03-29T08:07:11.020Z,23.21
2023-03-29T08:08:11.025Z,23.22
2023-03-29T08:09:11.052Z,23.21
2023-03-29T08:10:11.126Z,23.19
2023-03-29T08:11:11.176Z,23.20
2023-03-29T08:12:11.254Z,23.23
2023-03-29T08:13:11.310Z,23.31
2023-03-29T08:14:11.367Z,23.34
2023-03-29T08:15:11.462Z,23.34
2023-03-29T08:16:11.491Z,23.31
2023-03-29T08:17:11.614Z,23.39
2023-03-29T08:18:11.647Z,23.36
2023-03-29T08:19:11.678Z,23.38
2023-03-29T08:20:11.736Z,23.36
2023-03-29T08:21:11.778Z,23.37
2023-03-29T08:22:11.886Z,23.36
2023-03-29T08:23:11.903Z,23.33
2023-03-29T08:24:11.959Z,23.28
2023-03-29T08:25:12.107Z,23.22
2023-03-29T08:27:11.033Z,23.10
2023-03-29T08:28:12.102Z,22.96
2023-03-29T08:29:12.099Z,22.88
2023-03-29T08:30:11.090Z,22.75
2023-03-29T08:31:11.166Z,22.70
2023-03-29T08:32:11.161Z,22.65
2023-03-29T08:33:12.315Z,22.60
2023-03-29T08:34:11.294Z,22.58
2023-03-29T08:35:12.355Z,22.58
2023-03-29T08:36:12.462Z,22.56
2023-03-29T08:37:12.467Z,22.56
2023-03-29T08:38:12.526Z,22.53
2023-03-29T08:39:12.593Z,22.50
2023-03-29T08:40:12.654Z,22.48
2023-03-29T08:41:11.687Z,22.44
2023-03-29T08:42:13.125Z,22.40
2023-03-29T08:44:11.730Z,22.28
2023-03-29T08:46:11.900Z,22.20
2023-03-29T08:47:17.858Z,22.17
2023-03-29T08:48:12.778Z,22.13
2023-03-29T08:51:11.751Z,22.07
2023-03-29T08:52:11.745Z,22.05
2023-03-29T08:53:12.742Z,22.02
2023-03-29T08:56:11.728Z,21.93
2023-03-29T08:58:12.108Z,21.87
2023-03-29T09:01:11.842Z,22.14
2023-03-29T09:02:12.704Z,22.25
2023-03-29T09:03:12.744Z,22.36
2023-03-29T09:05:11.657Z,22.52
2023-03-29T09:08:11.626Z,22.72
2023-03-29T09:09:11.639Z,22.77
2023-03-29T09:14:11.601Z,23.10
2023-03-29T09:15:11.594Z,23.10
2023-03-29T09:16:12.615Z,23.11
2023-03-29T09:17:11.578Z,23.14
2023-03-29T09:18:12.700Z,23.14
2023-03-29T09:22:11.523Z,23.31
2023-03-29T09:23:12.533Z,23.33
2023-03-29T09:25:11.512Z,23.37
2023-03-29T09:26:12.516Z,23.38
2023-03-29T09:28:11.532Z,23.41
2023-03-29T09:29:12.525Z,23.42
2023-03-29T09:30:12.583Z,23.42
2023-03-29T09:31:12.715Z,23.42
2023-03-29T09:32:12.682Z,23.42
2023-03-29T09:33:12.795Z,23.45
2023-03-29T09:34:14.461Z,23.47
2023-03-29T09:35:12.810Z,23.50
2023-03-29T09:38:11.765Z,23.51
2023-03-29T09:39:11.762Z,23.49
2023-03-29T09:42:11.724Z,23.54
2023-03-29T09:43:12.720Z,23.57
2023-03-29T09:44:24.204Z,23.64
2023-03-29T09:45:12.709Z,23.65
2023-03-29T09:46:12.732Z,23.69
2023-03-29T09:50:22.991Z,23.52
2023-03-29T09:51:12.731Z,23.48
2023-03-29T09:52:12.654Z,23.44
2023-03-29T09:55:11.650Z,23.38
2023-03-29T09:58:11.645Z,23.31
2023-03-29T09:59:12.605Z,23.31
2023-03-29T10:00:12.609Z,23.30
2023-03-29T10:01:12.719Z,23.28
2023-03-29T10:02:12.722Z,23.27
2023-03-29T10:03:11.791Z,23.26
2023-03-29T10:04:12.916Z,23.26
2023-03-29T10:10:12.210Z,23.23
2023-03-29T10:11:12.252Z,23.22
2023-03-29T10:12:13.315Z,23.21
2023-03-29T10:13:13.390Z,23.20
2023-03-29T10:15:23.088Z,23.18
2023-03-29T10:16:13.525Z,23.17
2023-03-29T10:20:12.444Z,23.16
2023-03-29T10:22:12.449Z,23.16
2023-03-29T10:23:13.451Z,23.15
2023-03-29T10:24:13.443Z,23.14
2023-03-29T10:25:13.424Z,23.15
2023-03-29T10:27:12.455Z,23.14
2023-03-29T10:28:12.493Z,23.14
2023-03-29T10:29:13.514Z,23.14
2023-03-29T10:30:13.575Z,23.14
2023-03-29T10:31:15.021Z,23.13
2023-03-29T10:33:12.644Z,23.14
2023-03-29T10:35:12.580Z,23.13
2023-03-29T10:36:13.641Z,23.12
2023-03-29T10:40:12.531Z,23.11
2023-03-29T10:41:13.552Z,23.11
2023-03-29T10:42:13.528Z,23.11
2023-03-29T10:45:12.502Z,23.12
2023-03-29T10:46:13.572Z,23.12
2023-03-29T10:47:13.502Z,23.11
2023-03-29T10:48:13.491Z,23.12
2023-03-29T10:50:12.478Z,23.13
2023-03-29T10:51:13.464Z,23.13
2023-03-29T10:54:12.442Z,23.14
2023-03-29T10:55:12.462Z,23.13
2023-03-29T10:56:13.461Z,23.13
2023-03-29T10:57:13.475Z,23.14
2023-03-29T11:00:12.415Z,23.14
2023-03-29T11:01:13.465Z,23.15
2023-03-29T11:02:13.556Z,23.16
2023-03-29T11:07:12.692Z,23.14
2023-03-29T11:08:13.745Z,23.14
2023-03-29T11:09:13.780Z,23.15
2023-03-29T11:10:13.849Z,23.14
2023-03-29T11:11:13.927Z,23.14
2023-03-29T11:12:16.219Z,23.15
2023-03-29T11:13:13.950Z,23.14
2023-03-29T11:14:13.984Z,23.15
2023-03-29T11:16:13.006Z,23.16
2023-03-29T11:19:12.920Z,23.18
2023-03-29T11:20:12.993Z,23.18
2023-03-29T11:21:13.909Z,23.18
2023-03-29T11:24:12.901Z,23.18
2023-03-29T11:25:13.873Z,23.17
2023-03-29T11:26:12.871Z,23.17
2023-03-29T11:27:12.905Z,23.17
2023-03-29T11:32:12.834Z,23.15
2023-03-29T11:33:13.821Z,23.16
2023-03-29T11:34:13.835Z,23.14
2023-03-29T11:36:12.860Z,23.12
2023-03-29T11:38:12.807Z,23.13
2023-03-29T11:42:13.029Z,23.16
2023-03-29T11:43:14.107Z,23.17
2023-03-29T11:44:14.157Z,23.16
2023-03-29T11:45:13.164Z,23.16
2023-03-29T11:49:13.364Z,23.18
2023-03-29T11:50:14.399Z,23.19
2023-03-29T11:51:14.464Z,23.20
2023-03-29T11:52:14.527Z,23.21
2023-03-29T11:53:14.573Z,23.21
2023-03-29T11:54:14.660Z,23.21
2023-03-29T11:55:14.752Z,23.22
2023-03-29T11:56:14.757Z,23.22
2023-03-29T11:57:14.857Z,23.23
2023-03-29T12:00:14.002Z,23.24
2023-03-29T12:01:15.140Z,23.24
2023-03-29T12:02:14.148Z,23.24
2023-03-29T12:03:14.317Z,23.24
2023-03-29T12:08:14.477Z,23.25
2023-03-29T12:09:16.819Z,23.25
2023-03-29T12:10:15.618Z,23.25
2023-03-29T12:11:15.674Z,23.25
2023-03-29T12:12:15.736Z,23.25
2023-03-29T12:13:15.781Z,23.26
2023-03-29T12:14:15.864Z,23.25
2023-03-29T12:15:15.898Z,23.26
2023-03-29T12:16:16.034Z,23.27
2023-03-29T12:17:16.017Z,23.27
2023-03-29T12:18:16.061Z,23.28
2023-03-29T12:19:16.135Z,23.28
2023-03-29T12:20:16.187Z,23.28
2023-03-29T12:21:16.239Z,23.29
2023-03-29T12:22:16.298Z,23.30
2023-03-29T12:23:16.388Z,23.30
2023-03-29T12:24:16.420Z,23.30
2023-03-29T12:25:17.366Z,23.29
2023-03-29T12:26:16.679Z,23.30
2023-03-29T12:31:15.981Z,23.35
2023-03-29T12:32:17.038Z,23.35
2023-03-29T12:33:17.142Z,23.35
2023-03-29T12:34:16.185Z,23.32
2023-03-29T12:35:16.219Z,23.30
2023-03-29T12:36:17.331Z,23.31
2023-03-29T12:37:17.334Z,23.31
2023-03-29T12:38:17.413Z,23.31
2023-03-29T12:39:17.490Z,23.32
2023-03-29T12:40:17.524Z,23.32
2023-03-29T12:41:17.583Z,23.33
2023-03-29T12:42:17.663Z,23.33
2023-03-29T12:43:17.729Z,23.34
2023-03-29T12:44:17.775Z,23.34
2023-03-29T12:45:17.815Z,23.33
2023-03-29T12:46:17.934Z,23.34
2023-03-29T12:47:17.941Z,23.33
2023-03-29T12:48:18.012Z,23.33
2023-03-29T12:49:20.513Z,23.32
2023-03-29T12:50:17.069Z,23.32
2023-03-29T12:51:18.047Z,23.31
2023-03-29T12:54:17.044Z,23.33
2023-03-29T12:55:18.045Z,23.33
2023-03-29T12:58:17.015Z,23.33
2023-03-29T12:59:18.015Z,23.33
2023-03-29T13:02:17.070Z,23.32
2023-03-29T13:03:18.013Z,23.32
2023-03-29T13:06:16.954Z,23.32
2023-03-29T13:07:17.953Z,23.32
2023-03-29T13:10:16.927Z,23.31
2023-03-29T13:11:17.915Z,23.30
2023-03-29T13:12:17.926Z,23.31
2023-03-29T13:13:17.944Z,23.30
2023-03-29T13:14:18.014Z,23.29
2023-03-29T13:15:18.074Z,23.29
2023-03-29T13:16:18.175Z,23.28
2023-03-29T13:17:19.160Z,23.28
2023-03-29T13:18:18.288Z,23.28
2023-03-29T13:19:18.310Z,23.28
2023-03-29T13:20:18.397Z,23.28
2023-03-29T13:21:18.441Z,23.29
2023-03-29T13:23:17.998Z,23.28
2023-03-29T13:24:18.637Z,23.28
2023-03-29T13:25:17.701Z,23.28
2023-03-29T13:26:18.762Z,23.27
2023-03-29T13:27:18.805Z,23.28
2023-03-29T13:28:18.879Z,23.27
2023-03-29T13:33:18.196Z,23.26
2023-03-29T13:34:19.268Z,23.24
2023-03-29T13:35:19.320Z,23.24
2023-03-29T13:36:18.434Z,23.23
2023-03-29T13:37:18.449Z,23.23
2023-03-29T13:38:19.494Z,23.22
2023-03-29T13:39:19.563Z,23.22
2023-03-29T13:40:19.608Z,23.21
2023-03-29T13:45:18.856Z,23.21
2023-03-29T13:46:19.979Z,23.21
2023-03-29T13:47:19.980Z,23.21
2023-03-29T13:48:20.101Z,23.22
2023-03-29T13:49:20.123Z,23.21
2023-03-29T13:50:20.248Z,23.20
2023-03-29T13:53:19.361Z,23.19
2023-03-29T13:54:20.439Z,23.20
2023-03-29T13:55:20.484Z,23.20
2023-03-29T13:56:20.561Z,23.20
2023-03-29T13:57:20.658Z,23.20
2023-03-29T13:58:20.672Z,23.20
2023-03-29T13:59:20.745Z,23.19
2023-03-29T14:00:21.214Z,23.19
2023-03-29T14:01:20.894Z,23.19
2023-03-29T14:02:20.975Z,23.19
2023-03-29T14:03:20.994Z,23.18
2023-03-29T14:08:20.269Z,23.17
2023-03-29T14:09:21.320Z,23.16
2023-03-29T14:11:20.448Z,23.16
2023-03-29T14:12:21.494Z,23.15
2023-03-29T14:13:21.543Z,23.15
2023-03-29T14:14:21.588Z,23.14
2023-03-29T14:15:21.633Z,23.14
2023-03-29T14:16:20.737Z,23.14
2023-03-29T14:17:21.721Z,23.13
2023-03-29T14:18:21.739Z,23.13
2023-03-29T14:19:21.764Z,23.12
2023-03-29T14:20:21.762Z,23.10
2023-03-29T14:21:21.811Z,23.10
2023-03-29T14:22:21.826Z,23.09
2023-03-29T14:24:20.821Z,23.09
2023-03-29T14:25:20.843Z,23.09
2023-03-29T14:26:21.852Z,23.08
2023-03-29T14:27:21.893Z,23.07
2023-03-29T14:28:21.898Z,23.07
2023-03-29T14:29:24.373Z,23.07
2023-03-29T14:30:21.895Z,23.07
2023-03-29T14:31:21.919Z,23.06
2023-03-29T14:36:20.905Z,23.05
2023-03-29T14:37:21.862Z,23.05
2023-03-29T14:39:20.845Z,23.03
2023-03-29T14:40:21.839Z,23.04
2023-03-29T14:46:20.868Z,23.03
2023-03-29T14:51:20.753Z,23.01
2023-03-29T14:52:21.737Z,23.01
2023-03-29T14:53:21.741Z,23.01
2023-03-29T14:54:20.783Z,23.01
2023-03-29T14:55:21.738Z,23.00
2023-03-29T15:00:20.727Z,22.99
2023-03-29T15:01:21.721Z,22.99
2023-03-29T15:02:21.829Z,22.99
2023-03-29T15:03:20.742Z,22.99
2023-03-29T15:04:21.679Z,22.98
2023-03-29T15:10:20.677Z,22.94
2023-03-29T15:11:21.625Z,22.93
2023-03-29T15:12:20.612Z,22.92
2023-03-29T15:13:21.604Z,22.92
2023-03-29T15:15:20.599Z,22.84
2023-03-29T15:16:21.598Z,22.79
2023-03-29T15:21:20.574Z,22.78
2023-03-29T15:22:21.560Z,22.79
2023-03-29T15:25:20.518Z,22.79
2023-03-29T15:26:21.572Z,22.79
